sensor_id;sensor_type;location;lat;lon;timestamp;temperature;humidity
24802;DHT22;12898;50.520;12.152;2023-07-16T00:00:30;18.60;99.90
24802;DHT22;12898;50.520;12.152;2023-07-16T00:02:56;18.60;99.90
24802;DHT22;12898;50.520;12.152;2023-07-16T00:05:22;18.60;99.90
24802;DHT22;12898;50.520;12.152;2023-07-16T00:07:47;18.60;99.90
24802;DHT22;12898;50.520;12.152;2023-07-16T00:10:13;18.60;99.90
24802;DHT22;12898;50.520;12.152;2023-07-16T00:12:39;18.60;99.90
24802;DHT22;12898;50.520;12.152;2023-07-16T00:15:05;18.60;99.90
24802;DHT22;12898;50.520;12.152;2023-07-16T00:17:33;18.60;99.90
24802;DHT22;12898;50.520;12.152;2023-07-16T00:19:59;18.60;99.90
24802;DHT22;12898;50.520;12.152;2023-07-16T00:22:24;18.60;99.90
24802;DHT22;12898;50.520;12.152;2023-07-16T00:24:50;18.50;99.90
24802;DHT22;12898;50.520;12.152;2023-07-16T00:27:16;18.60;99.90
24802;DHT22;12898;50.520;12.152;2023-07-16T00:29:41;18.50;99.90
24802;DHT22;12898;50.520;12.152;2023-07-16T00:32:07;18.50;99.90
24802;DHT22;12898;50.520;12.152;2023-07-16T00:34:33;18.40;99.90
24802;DHT22;12898;50.520;12.152;2023-07-16T00:36:59;18.30;99.90
24802;DHT22;12898;50.520;12.152;2023-07-16T00:39:28;18.30;99.90
24802;DHT22;12898;50.520;12.152;2023-07-16T00:41:54;18.40;99.90
24802;DHT22;12898;50.520;12.152;2023-07-16T00:44:22;18.40;99.90
24802;DHT22;12898;50.520;12.152;2023-07-16T00:46:48;18.40;99.90
24802;DHT22;12898;50.520;12.152;2023-07-16T00:49:14;18.50;99.90
24802;DHT22;12898;50.520;12.152;2023-07-16T00:51:41;18.50;99.90
24802;DHT22;12898;50.520;12.152;2023-07-16T00:54:08;18.50;99.90
24802;DHT22;12898;50.520;12.152;2023-07-16T00:56:35;18.50;99.90
24802;DHT22;12898;50.520;12.152;2023-07-16T00:59:02;18.60;99.90
24802;DHT22;12898;50.520;12.152;2023-07-16T01:01:28;18.60;99.90
24802;DHT22;12898;50.520;12.152;2023-07-16T01:03:54;18.50;99.90
24802;DHT22;12898;50.520;12.152;2023-07-16T01:06:47;18.50;99.90
24802;DHT22;12898;50.520;12.152;2023-07-16T01:09:19;18.50;99.90
24802;DHT22;12898;50.520;12.152;2023-07-16T01:11:47;18.50;99.90
24802;DHT22;12898;50.520;12.152;2023-07-16T01:14:14;18.50;99.90
24802;DHT22;12898;50.520;12.152;2023-07-16T01:16:42;18.50;99.90
24802;DHT22;12898;50.520;12.152;2023-07-16T01:19:08;18.40;99.90
24802;DHT22;12898;50.520;12.152;2023-07-16T01:21:55;18.40;99.90
24802;DHT22;12898;50.520;12.152;2023-07-16T01:27:50;18.40;99.90
24802;DHT22;12898;50.520;12.152;2023-07-16T01:30:26;18.40;99.90
24802;DHT22;12898;50.520;12.152;2023-07-16T01:32:53;18.40;99.90
24802;DHT22;12898;50.520;12.152;2023-07-16T01:35:21;18.30;99.90
24802;DHT22;12898;50.520;12.152;2023-07-16T01:37:46;18.30;99.90
24802;DHT22;12898;50.520;12.152;2023-07-16T01:40:12;18.30;99.90
24802;DHT22;12898;50.520;12.152;2023-07-16T01:42:40;18.30;99.90
24802;DHT22;12898;50.520;12.152;2023-07-16T01:45:06;18.30;99.90
24802;DHT22;12898;50.520;12.152;2023-07-16T01:50:31;18.40;99.90
24802;DHT22;12898;50.520;12.152;2023-07-16T01:52:57;18.50;99.90
24802;DHT22;12898;50.520;12.152;2023-07-16T01:55:23;18.50;99.90
24802;DHT22;12898;50.520;12.152;2023-07-16T01:57:48;18.50;99.90
24802;DHT22;12898;50.520;12.152;2023-07-16T02:00:14;18.60;99.90
24802;DHT22;12898;50.520;12.152;2023-07-16T02:02:40;18.60;99.90
24802;DHT22;12898;50.520;12.152;2023-07-16T02:05:06;18.60;99.90
24802;DHT22;12898;50.520;12.152;2023-07-16T02:07:31;18.60;99.90
24802;DHT22;12898;50.520;12.152;2023-07-16T02:09:57;18.70;99.90
24802;DHT22;12898;50.520;12.152;2023-07-16T02:12:23;18.70;99.90
24802;DHT22;12898;50.520;12.152;2023-07-16T02:14:48;18.70;99.90
24802;DHT22;12898;50.520;12.152;2023-07-16T02:17:14;18.70;99.90
24802;DHT22;12898;50.520;12.152;2023-07-16T02:19:40;18.70;99.90
24802;DHT22;12898;50.520;12.152;2023-07-16T02:22:05;18.70;99.90
24802;DHT22;12898;50.520;12.152;2023-07-16T02:24:31;18.70;99.90
24802;DHT22;12898;50.520;12.152;2023-07-16T02:26:57;18.70;99.90
24802;DHT22;12898;50.520;12.152;2023-07-16T02:29:22;18.70;99.90
24802;DHT22;12898;50.520;12.152;2023-07-16T02:31:48;18.70;99.90
24802;DHT22;12898;50.520;12.152;2023-07-16T02:34:14;18.70;99.90
24802;DHT22;12898;50.520;12.152;2023-07-16T02:36:39;18.70;99.90
24802;DHT22;12898;50.520;12.152;2023-07-16T02:39:05;18.70;99.90
24802;DHT22;12898;50.520;12.152;2023-07-16T02:41:31;18.70;99.90
24802;DHT22;12898;50.520;12.152;2023-07-16T02:44:01;18.70;99.90
24802;DHT22;12898;50.520;12.152;2023-07-16T02:46:28;18.70;99.90
24802;DHT22;12898;50.520;12.152;2023-07-16T02:48:54;18.70;99.90
24802;DHT22;12898;50.520;12.152;2023-07-16T02:51:20;18.70;99.90
24802;DHT22;12898;50.520;12.152;2023-07-16T02:53:45;18.70;99.90
24802;DHT22;12898;50.520;12.152;2023-07-16T02:56:11;18.60;99.90
24802;DHT22;12898;50.520;12.152;2023-07-16T02:58:37;18.60;99.90
24802;DHT22;12898;50.520;12.152;2023-07-16T03:01:02;18.60;99.90
24802;DHT22;12898;50.520;12.152;2023-07-16T03:03:29;18.60;99.90
24802;DHT22;12898;50.520;12.152;2023-07-16T03:05:54;18.60;99.90
24802;DHT22;12898;50.520;12.152;2023-07-16T03:08:20;18.60;99.90
24802;DHT22;12898;50.520;12.152;2023-07-16T03:10:46;18.50;99.90
24802;DHT22;12898;50.520;12.152;2023-07-16T03:13:11;18.50;99.90
24802;DHT22;12898;50.520;12.152;2023-07-16T03:15:37;18.50;99.90
24802;DHT22;12898;50.520;12.152;2023-07-16T03:18:03;18.50;99.90
24802;DHT22;12898;50.520;12.152;2023-07-16T03:20:28;18.50;99.90
24802;DHT22;12898;50.520;12.152;2023-07-16T03:22:54;18.40;99.90
24802;DHT22;12898;50.520;12.152;2023-07-16T03:25:20;18.40;99.90
24802;DHT22;12898;50.520;12.152;2023-07-16T03:27:45;18.40;99.90
24802;DHT22;12898;50.520;12.152;2023-07-16T03:30:11;18.40;99.90
24802;DHT22;12898;50.520;12.152;2023-07-16T03:32:37;18.40;99.90
24802;DHT22;12898;50.520;12.152;2023-07-16T03:35:03;18.40;99.90
24802;DHT22;12898;50.520;12.152;2023-07-16T03:37:28;18.40;99.90
24802;DHT22;12898;50.520;12.152;2023-07-16T03:39:54;18.40;99.90
24802;DHT22;12898;50.520;12.152;2023-07-16T03:42:20;18.40;99.90
24802;DHT22;12898;50.520;12.152;2023-07-16T03:44:47;18.40;99.90
24802;DHT22;12898;50.520;12.152;2023-07-16T03:47:13;18.40;99.90
24802;DHT22;12898;50.520;12.152;2023-07-16T03:49:38;18.40;99.90
24802;DHT22;12898;50.520;12.152;2023-07-16T03:52:05;18.40;99.90
24802;DHT22;12898;50.520;12.152;2023-07-16T03:54:31;18.40;99.90
24802;DHT22;12898;50.520;12.152;2023-07-16T03:56:57;18.50;99.90
24802;DHT22;12898;50.520;12.152;2023-07-16T03:59:22;18.40;99.90
24802;DHT22;12898;50.520;12.152;2023-07-16T04:01:48;18.40;99.90
24802;DHT22;12898;50.520;12.152;2023-07-16T04:04:14;18.50;99.90
24802;DHT22;12898;50.520;12.152;2023-07-16T04:06:39;18.50;99.90
24802;DHT22;12898;50.520;12.152;2023-07-16T04:09:05;18.50;99.90
24802;DHT22;12898;50.520;12.152;2023-07-16T04:11:30;18.50;99.90
24802;DHT22;12898;50.520;12.152;2023-07-16T04:13:56;18.50;99.90
24802;DHT22;12898;50.520;12.152;2023-07-16T04:16:22;18.50;99.90
24802;DHT22;12898;50.520;12.152;2023-07-16T04:18:47;18.50;99.90
24802;DHT22;12898;50.520;12.152;2023-07-16T04:21:13;18.50;99.90
24802;DHT22;12898;50.520;12.152;2023-07-16T04:23:39;18.50;99.90
24802;DHT22;12898;50.520;12.152;2023-07-16T04:26:05;18.50;99.90
24802;DHT22;12898;50.520;12.152;2023-07-16T04:28:30;18.50;99.90
24802;DHT22;12898;50.520;12.152;2023-07-16T04:30:56;18.60;99.90
24802;DHT22;12898;50.520;12.152;2023-07-16T04:33:21;18.60;99.90
24802;DHT22;12898;50.520;12.152;2023-07-16T04:35:47;18.60;99.90
24802;DHT22;12898;50.520;12.152;2023-07-16T04:38:13;18.70;99.90
24802;DHT22;12898;50.520;12.152;2023-07-16T04:40:38;18.70;99.90
24802;DHT22;12898;50.520;12.152;2023-07-16T04:43:04;18.70;99.90
24802;DHT22;12898;50.520;12.152;2023-07-16T04:45:30;18.80;99.90
24802;DHT22;12898;50.520;12.152;2023-07-16T04:47:55;18.80;99.90
24802;DHT22;12898;50.520;12.152;2023-07-16T04:50:21;18.90;99.90
24802;DHT22;12898;50.520;12.152;2023-07-16T04:52:47;18.90;99.90
24802;DHT22;12898;50.520;12.152;2023-07-16T04:55:12;18.90;99.90
24802;DHT22;12898;50.520;12.152;2023-07-16T04:57:39;18.90;99.90
24802;DHT22;12898;50.520;12.152;2023-07-16T05:00:05;19.00;99.90
24802;DHT22;12898;50.520;12.152;2023-07-16T05:02:32;19.00;99.90
24802;DHT22;12898;50.520;12.152;2023-07-16T05:04:58;18.90;99.90
24802;DHT22;12898;50.520;12.152;2023-07-16T05:07:23;18.80;99.90
24802;DHT22;12898;50.520;12.152;2023-07-16T05:09:49;18.80;99.90
24802;DHT22;12898;50.520;12.152;2023-07-16T05:12:15;18.80;99.90
24802;DHT22;12898;50.520;12.152;2023-07-16T05:14:45;18.90;99.90
24802;DHT22;12898;50.520;12.152;2023-07-16T05:17:13;19.00;99.90
24802;DHT22;12898;50.520;12.152;2023-07-16T05:19:39;19.00;99.90
24802;DHT22;12898;50.520;12.152;2023-07-16T05:22:05;19.10;99.90
24802;DHT22;12898;50.520;12.152;2023-07-16T05:24:32;19.10;99.90
24802;DHT22;12898;50.520;12.152;2023-07-16T05:26:57;19.10;99.90
24802;DHT22;12898;50.520;12.152;2023-07-16T05:29:23;19.00;99.90
24802;DHT22;12898;50.520;12.152;2023-07-16T05:31:49;19.00;99.90
24802;DHT22;12898;50.520;12.152;2023-07-16T05:34:15;19.00;99.90
24802;DHT22;12898;50.520;12.152;2023-07-16T05:36:42;19.00;99.90
24802;DHT22;12898;50.520;12.152;2023-07-16T05:39:10;19.00;99.90
24802;DHT22;12898;50.520;12.152;2023-07-16T05:41:40;19.00;99.90
24802;DHT22;12898;50.520;12.152;2023-07-16T05:44:06;18.90;99.90
24802;DHT22;12898;50.520;12.152;2023-07-16T05:46:33;18.90;99.90
24802;DHT22;12898;50.520;12.152;2023-07-16T05:48:59;19.00;99.90
24802;DHT22;12898;50.520;12.152;2023-07-16T05:51:25;19.00;99.90
24802;DHT22;12898;50.520;12.152;2023-07-16T05:53:51;19.00;99.90
24802;DHT22;12898;50.520;12.152;2023-07-16T05:56:16;19.00;99.90
24802;DHT22;12898;50.520;12.152;2023-07-16T05:58:42;19.00;99.90
24802;DHT22;12898;50.520;12.152;2023-07-16T06:01:08;19.10;99.90
24802;DHT22;12898;50.520;12.152;2023-07-16T06:03:34;19.20;99.90
24802;DHT22;12898;50.520;12.152;2023-07-16T06:05:59;19.40;99.90
24802;DHT22;12898;50.520;12.152;2023-07-16T06:08:25;19.50;99.90
24802;DHT22;12898;50.520;12.152;2023-07-16T06:10:51;19.60;99.90
24802;DHT22;12898;50.520;12.152;2023-07-16T06:13:17;19.60;99.90
24802;DHT22;12898;50.520;12.152;2023-07-16T06:15:43;19.70;99.90
24802;DHT22;12898;50.520;12.152;2023-07-16T06:18:09;19.80;99.90
24802;DHT22;12898;50.520;12.152;2023-07-16T06:20:35;19.80;99.90
24802;DHT22;12898;50.520;12.152;2023-07-16T06:23:01;19.70;99.90
24802;DHT22;12898;50.520;12.152;2023-07-16T06:25:26;19.80;99.90
24802;DHT22;12898;50.520;12.152;2023-07-16T06:27:52;19.70;99.90
24802;DHT22;12898;50.520;12.152;2023-07-16T06:30:18;19.70;99.90
24802;DHT22;12898;50.520;12.152;2023-07-16T06:32:43;19.60;99.90
24802;DHT22;12898;50.520;12.152;2023-07-16T06:35:09;19.60;99.90
24802;DHT22;12898;50.520;12.152;2023-07-16T06:37:35;19.50;99.90
24802;DHT22;12898;50.520;12.152;2023-07-16T06:40:00;19.50;99.90
24802;DHT22;12898;50.520;12.152;2023-07-16T06:42:26;19.50;99.90
24802;DHT22;12898;50.520;12.152;2023-07-16T06:44:52;19.50;99.90
24802;DHT22;12898;50.520;12.152;2023-07-16T06:47:17;19.50;99.90
24802;DHT22;12898;50.520;12.152;2023-07-16T06:49:43;19.50;99.90
24802;DHT22;12898;50.520;12.152;2023-07-16T06:52:18;19.50;99.90
24802;DHT22;12898;50.520;12.152;2023-07-16T06:54:48;19.60;99.90
24802;DHT22;12898;50.520;12.152;2023-07-16T06:57:14;19.70;99.90
24802;DHT22;12898;50.520;12.152;2023-07-16T06:59:39;19.80;99.90
24802;DHT22;12898;50.520;12.152;2023-07-16T07:02:06;19.90;99.90
24802;DHT22;12898;50.520;12.152;2023-07-16T07:04:32;19.90;99.90
24802;DHT22;12898;50.520;12.152;2023-07-16T07:06:57;20.00;99.90
24802;DHT22;12898;50.520;12.152;2023-07-16T07:09:23;20.00;99.90
24802;DHT22;12898;50.520;12.152;2023-07-16T07:11:48;20.10;99.90
24802;DHT22;12898;50.520;12.152;2023-07-16T07:14:14;20.20;99.90
24802;DHT22;12898;50.520;12.152;2023-07-16T07:16:40;20.20;99.90
24802;DHT22;12898;50.520;12.152;2023-07-16T07:19:06;20.30;99.90
24802;DHT22;12898;50.520;12.152;2023-07-16T07:21:31;20.40;99.90
24802;DHT22;12898;50.520;12.152;2023-07-16T07:23:57;20.30;99.90
24802;DHT22;12898;50.520;12.152;2023-07-16T07:26:23;20.10;99.90
24802;DHT22;12898;50.520;12.152;2023-07-16T07:28:48;20.00;99.90
24802;DHT22;12898;50.520;12.152;2023-07-16T07:31:14;19.90;99.90
24802;DHT22;12898;50.520;12.152;2023-07-16T07:33:40;20.00;99.90
24802;DHT22;12898;50.520;12.152;2023-07-16T07:36:05;20.00;99.90
24802;DHT22;12898;50.520;12.152;2023-07-16T07:38:31;20.30;99.90
24802;DHT22;12898;50.520;12.152;2023-07-16T07:40:57;20.40;99.90
24802;DHT22;12898;50.520;12.152;2023-07-16T07:43:22;20.60;99.90
24802;DHT22;12898;50.520;12.152;2023-07-16T07:45:48;20.70;99.90
24802;DHT22;12898;50.520;12.152;2023-07-16T07:48:14;21.10;99.90
24802;DHT22;12898;50.520;12.152;2023-07-16T07:50:39;21.50;99.90
24802;DHT22;12898;50.520;12.152;2023-07-16T07:53:05;21.80;99.90
24802;DHT22;12898;50.520;12.152;2023-07-16T07:55:32;21.90;99.90
24802;DHT22;12898;50.520;12.152;2023-07-16T07:57:58;21.90;99.90
24802;DHT22;12898;50.520;12.152;2023-07-16T08:00:24;21.60;99.90
24802;DHT22;12898;50.520;12.152;2023-07-16T08:02:50;21.40;99.90
24802;DHT22;12898;50.520;12.152;2023-07-16T08:05:15;21.20;99.90
24802;DHT22;12898;50.520;12.152;2023-07-16T08:07:41;21.00;99.90
24802;DHT22;12898;50.520;12.152;2023-07-16T08:10:07;21.00;99.90
24802;DHT22;12898;50.520;12.152;2023-07-16T08:12:33;20.90;99.90
24802;DHT22;12898;50.520;12.152;2023-07-16T08:14:58;20.90;99.90
24802;DHT22;12898;50.520;12.152;2023-07-16T08:17:24;21.00;99.90
24802;DHT22;12898;50.520;12.152;2023-07-16T08:19:50;21.20;99.90
24802;DHT22;12898;50.520;12.152;2023-07-16T08:22:15;21.30;99.90
24802;DHT22;12898;50.520;12.152;2023-07-16T08:24:41;21.40;99.90
24802;DHT22;12898;50.520;12.152;2023-07-16T08:27:07;21.50;99.90
24802;DHT22;12898;50.520;12.152;2023-07-16T08:29:35;21.60;99.90
24802;DHT22;12898;50.520;12.152;2023-07-16T08:32:01;22.00;99.90
24802;DHT22;12898;50.520;12.152;2023-07-16T08:34:28;21.90;99.90
24802;DHT22;12898;50.520;12.152;2023-07-16T08:36:54;21.70;99.90
24802;DHT22;12898;50.520;12.152;2023-07-16T08:39:19;21.80;99.90
24802;DHT22;12898;50.520;12.152;2023-07-16T08:41:46;21.90;99.90
24802;DHT22;12898;50.520;12.152;2023-07-16T08:44:12;22.00;99.90
24802;DHT22;12898;50.520;12.152;2023-07-16T08:46:39;22.00;99.90
24802;DHT22;12898;50.520;12.152;2023-07-16T08:49:07;22.10;99.90
24802;DHT22;12898;50.520;12.152;2023-07-16T08:51:34;22.30;99.90
24802;DHT22;12898;50.520;12.152;2023-07-16T08:54:00;22.50;99.90
24802;DHT22;12898;50.520;12.152;2023-07-16T08:56:26;22.70;99.90
24802;DHT22;12898;50.520;12.152;2023-07-16T08:58:54;22.80;99.90
24802;DHT22;12898;50.520;12.152;2023-07-16T09:01:21;22.70;99.90
24802;DHT22;12898;50.520;12.152;2023-07-16T09:03:47;22.80;99.90
24802;DHT22;12898;50.520;12.152;2023-07-16T09:06:13;23.10;99.90
24802;DHT22;12898;50.520;12.152;2023-07-16T09:08:39;23.20;99.90
24802;DHT22;12898;50.520;12.152;2023-07-16T09:11:04;23.20;99.90
24802;DHT22;12898;50.520;12.152;2023-07-16T09:13:30;23.20;99.00
24802;DHT22;12898;50.520;12.152;2023-07-16T09:15:57;23.20;97.80
24802;DHT22;12898;50.520;12.152;2023-07-16T09:18:27;23.00;98.10
24802;DHT22;12898;50.520;12.152;2023-07-16T09:21:00;22.70;99.50
24802;DHT22;12898;50.520;12.152;2023-07-16T09:23:30;23.10;99.90
24802;DHT22;12898;50.520;12.152;2023-07-16T09:25:58;23.20;97.30
24802;DHT22;12898;50.520;12.152;2023-07-16T09:28:24;22.90;98.00
24802;DHT22;12898;50.520;12.152;2023-07-16T09:30:51;22.60;98.60
24802;DHT22;12898;50.520;12.152;2023-07-16T09:33:21;22.70;99.90
24802;DHT22;12898;50.520;12.152;2023-07-16T09:35:51;23.10;99.90
24802;DHT22;12898;50.520;12.152;2023-07-16T09:38:17;23.30;99.80
24802;DHT22;12898;50.520;12.152;2023-07-16T09:40:44;23.30;98.70
24802;DHT22;12898;50.520;12.152;2023-07-16T09:43:13;23.30;98.20
24802;DHT22;12898;50.520;12.152;2023-07-16T09:45:39;23.20;99.30
24802;DHT22;12898;50.520;12.152;2023-07-16T09:48:06;23.40;98.60
24802;DHT22;12898;50.520;12.152;2023-07-16T09:50:33;23.40;97.30
24802;DHT22;12898;50.520;12.152;2023-07-16T09:53:00;23.20;98.10
24802;DHT22;12898;50.520;12.152;2023-07-16T09:55:31;23.00;98.60
24802;DHT22;12898;50.520;12.152;2023-07-16T09:58:00;23.10;99.90
24802;DHT22;12898;50.520;12.152;2023-07-16T10:00:27;23.20;99.30
24802;DHT22;12898;50.520;12.152;2023-07-16T10:02:54;23.60;99.80
24802;DHT22;12898;50.520;12.152;2023-07-16T10:05:23;24.30;97.70
24802;DHT22;12898;50.520;12.152;2023-07-16T10:07:55;24.50;92.40
24802;DHT22;12898;50.520;12.152;2023-07-16T10:10:39;24.50;93.00
24802;DHT22;12898;50.520;12.152;2023-07-16T10:13:24;24.30;92.20
24802;DHT22;12898;50.520;12.152;2023-07-16T10:15:58;24.00;91.60
24802;DHT22;12898;50.520;12.152;2023-07-16T10:18:31;23.70;94.00
24802;DHT22;12898;50.520;12.152;2023-07-16T10:21:05;23.50;94.70
24802;DHT22;12898;50.520;12.152;2023-07-16T10:23:43;23.40;93.30
24802;DHT22;12898;50.520;12.152;2023-07-16T10:26:14;23.80;94.60
24802;DHT22;12898;50.520;12.152;2023-07-16T10:28:40;24.50;94.60
24802;DHT22;12898;50.520;12.152;2023-07-16T10:31:16;25.10;83.50
24802;DHT22;12898;50.520;12.152;2023-07-16T10:33:42;25.20;76.90
24802;DHT22;12898;50.520;12.152;2023-07-16T10:36:08;25.10;74.70
24802;DHT22;12898;50.520;12.152;2023-07-16T10:38:41;25.30;77.90
24802;DHT22;12898;50.520;12.152;2023-07-16T10:41:09;25.70;75.70
24802;DHT22;12898;50.520;12.152;2023-07-16T10:43:35;25.40;72.80
24802;DHT22;12898;50.520;12.152;2023-07-16T10:46:02;25.20;75.10
24802;DHT22;12898;50.520;12.152;2023-07-16T10:48:28;25.10;75.60
24802;DHT22;12898;50.520;12.152;2023-07-16T10:50:54;25.40;77.60
24802;DHT22;12898;50.520;12.152;2023-07-16T10:53:20;25.90;73.40
24802;DHT22;12898;50.520;12.152;2023-07-16T10:55:46;26.00;68.70
24802;DHT22;12898;50.520;12.152;2023-07-16T10:58:11;26.00;70.20
24802;DHT22;12898;50.520;12.152;2023-07-16T11:00:41;26.20;71.70
24802;DHT22;12898;50.520;12.152;2023-07-16T11:03:07;26.20;68.20
24802;DHT22;12898;50.520;12.152;2023-07-16T11:05:35;26.30;66.90
24802;DHT22;12898;50.520;12.152;2023-07-16T11:08:01;26.40;64.50
24802;DHT22;12898;50.520;12.152;2023-07-16T11:10:30;26.40;68.40
24802;DHT22;12898;50.520;12.152;2023-07-16T11:12:56;26.40;62.70
24802;DHT22;12898;50.520;12.152;2023-07-16T11:15:32;26.20;59.80
24802;DHT22;12898;50.520;12.152;2023-07-16T11:17:58;26.10;61.90
24802;DHT22;12898;50.520;12.152;2023-07-16T11:20:24;26.40;62.90
24802;DHT22;12898;50.520;12.152;2023-07-16T11:22:50;26.70;60.40
24802;DHT22;12898;50.520;12.152;2023-07-16T11:25:15;27.00;58.50
24802;DHT22;12898;50.520;12.152;2023-07-16T11:27:42;27.20;57.20
24802;DHT22;12898;50.520;12.152;2023-07-16T11:30:08;27.30;55.70
24802;DHT22;12898;50.520;12.152;2023-07-16T11:35:02;27.10;57.00
24802;DHT22;12898;50.520;12.152;2023-07-16T11:37:31;27.50;55.60
24802;DHT22;12898;50.520;12.152;2023-07-16T11:40:01;27.40;54.50
24802;DHT22;12898;50.520;12.152;2023-07-16T11:42:33;27.40;56.10
24802;DHT22;12898;50.520;12.152;2023-07-16T11:45:00;27.50;54.10
24802;DHT22;12898;50.520;12.152;2023-07-16T11:47:26;27.50;53.10
24802;DHT22;12898;50.520;12.152;2023-07-16T11:49:53;27.50;53.70
24802;DHT22;12898;50.520;12.152;2023-07-16T11:52:29;27.60;52.30
24802;DHT22;12898;50.520;12.152;2023-07-16T11:54:57;27.60;52.70
24802;DHT22;12898;50.520;12.152;2023-07-16T11:57:29;27.60;52.80
24802;DHT22;12898;50.520;12.152;2023-07-16T11:59:55;27.70;52.50
24802;DHT22;12898;50.520;12.152;2023-07-16T12:02:21;27.80;52.40
24802;DHT22;12898;50.520;12.152;2023-07-16T12:04:48;28.10;52.80
24802;DHT22;12898;50.520;12.152;2023-07-16T12:07:14;28.00;49.80
24802;DHT22;12898;50.520;12.152;2023-07-16T12:09:40;28.00;53.60
24802;DHT22;12898;50.520;12.152;2023-07-16T12:12:06;28.30;52.10
24802;DHT22;12898;50.520;12.152;2023-07-16T12:14:32;28.40;51.00
24802;DHT22;12898;50.520;12.152;2023-07-16T12:16:58;28.50;50.90
24802;DHT22;12898;50.520;12.152;2023-07-16T12:19:24;28.50;51.20
24802;DHT22;12898;50.520;12.152;2023-07-16T12:21:50;28.10;50.20
24802;DHT22;12898;50.520;12.152;2023-07-16T12:24:16;28.10;51.70
24802;DHT22;12898;50.520;12.152;2023-07-16T12:26:42;28.30;50.70
24802;DHT22;12898;50.520;12.152;2023-07-16T12:29:08;28.50;51.70
24802;DHT22;12898;50.520;12.152;2023-07-16T12:31:34;28.30;50.30
24802;DHT22;12898;50.520;12.152;2023-07-16T12:34:00;27.90;50.90
24802;DHT22;12898;50.520;12.152;2023-07-16T12:36:29;28.00;54.10
24802;DHT22;12898;50.520;12.152;2023-07-16T12:38:55;28.40;53.50
24802;DHT22;12898;50.520;12.152;2023-07-16T12:41:21;28.70;51.90
24802;DHT22;12898;50.520;12.152;2023-07-16T12:43:47;28.80;50.90
24802;DHT22;12898;50.520;12.152;2023-07-16T12:46:13;28.80;51.00
24802;DHT22;12898;50.520;12.152;2023-07-16T12:48:39;28.60;50.90
24802;DHT22;12898;50.520;12.152;2023-07-16T12:51:04;28.30;52.40
24802;DHT22;12898;50.520;12.152;2023-07-16T12:53:30;28.10;51.10
24802;DHT22;12898;50.520;12.152;2023-07-16T12:55:56;28.00;52.50
24802;DHT22;12898;50.520;12.152;2023-07-16T12:58:21;28.50;51.70
24802;DHT22;12898;50.520;12.152;2023-07-16T13:00:47;28.50;50.30
24802;DHT22;12898;50.520;12.152;2023-07-16T13:03:13;28.40;50.80
24802;DHT22;12898;50.520;12.152;2023-07-16T13:05:44;28.30;51.40
24802;DHT22;12898;50.520;12.152;2023-07-16T13:08:10;28.60;51.00
24802;DHT22;12898;50.520;12.152;2023-07-16T13:10:36;28.90;51.20
24802;DHT22;12898;50.520;12.152;2023-07-16T13:13:02;28.70;50.50
24802;DHT22;12898;50.520;12.152;2023-07-16T13:15:29;28.70;49.50
24802;DHT22;12898;50.520;12.152;2023-07-16T13:17:55;28.20;49.30
24802;DHT22;12898;50.520;12.152;2023-07-16T13:20:21;28.40;51.90
24802;DHT22;12898;50.520;12.152;2023-07-16T13:22:47;28.40;50.60
24802;DHT22;12898;50.520;12.152;2023-07-16T13:25:13;28.50;51.40
24802;DHT22;12898;50.520;12.152;2023-07-16T13:27:39;28.60;48.20
24802;DHT22;12898;50.520;12.152;2023-07-16T13:30:06;28.40;49.70
24802;DHT22;12898;50.520;12.152;2023-07-16T13:32:32;28.50;50.50
24802;DHT22;12898;50.520;12.152;2023-07-16T13:34:57;28.60;49.00
24802;DHT22;12898;50.520;12.152;2023-07-16T13:37:23;28.80;50.40
24802;DHT22;12898;50.520;12.152;2023-07-16T13:39:49;29.10;49.20
24802;DHT22;12898;50.520;12.152;2023-07-16T13:42:15;29.50;48.90
24802;DHT22;12898;50.520;12.152;2023-07-16T13:44:40;29.60;47.20
24802;DHT22;12898;50.520;12.152;2023-07-16T13:47:06;29.70;47.60
24802;DHT22;12898;50.520;12.152;2023-07-16T13:49:32;29.30;46.10
24802;DHT22;12898;50.520;12.152;2023-07-16T13:51:57;29.00;48.20
24802;DHT22;12898;50.520;12.152;2023-07-16T13:54:23;28.90;47.60
24802;DHT22;12898;50.520;12.152;2023-07-16T13:56:49;29.30;48.90
24802;DHT22;12898;50.520;12.152;2023-07-16T13:59:15;29.20;47.20
24802;DHT22;12898;50.520;12.152;2023-07-16T14:01:41;29.00;47.50
24802;DHT22;12898;50.520;12.152;2023-07-16T14:04:06;29.10;48.30
24802;DHT22;12898;50.520;12.152;2023-07-16T14:06:32;29.40;47.90
24802;DHT22;12898;50.520;12.152;2023-07-16T14:08:59;29.50;47.40
24802;DHT22;12898;50.520;12.152;2023-07-16T14:11:25;29.70;47.20
24802;DHT22;12898;50.520;12.152;2023-07-16T14:13:51;29.60;46.50
24802;DHT22;12898;50.520;12.152;2023-07-16T14:16:18;29.60;47.50
24802;DHT22;12898;50.520;12.152;2023-07-16T14:18:44;29.60;46.60
24802;DHT22;12898;50.520;12.152;2023-07-16T14:21:10;29.70;46.90
24802;DHT22;12898;50.520;12.152;2023-07-16T14:23:36;29.60;46.40
24802;DHT22;12898;50.520;12.152;2023-07-16T14:26:02;29.20;45.70
24802;DHT22;12898;50.520;12.152;2023-07-16T14:28:28;29.10;47.20
24802;DHT22;12898;50.520;12.152;2023-07-16T14:30:54;29.30;48.70
24802;DHT22;12898;50.520;12.152;2023-07-16T14:33:20;29.70;47.50
24802;DHT22;12898;50.520;12.152;2023-07-16T14:35:46;29.70;46.90
24802;DHT22;12898;50.520;12.152;2023-07-16T14:38:12;29.70;46.70
24802;DHT22;12898;50.520;12.152;2023-07-16T14:40:37;29.70;47.30
24802;DHT22;12898;50.520;12.152;2023-07-16T14:43:04;29.60;45.80
24802;DHT22;12898;50.520;12.152;2023-07-16T14:45:31;29.60;46.20
24802;DHT22;12898;50.520;12.152;2023-07-16T14:47:58;29.60;46.50
24802;DHT22;12898;50.520;12.152;2023-07-16T14:50:23;29.50;47.10
24802;DHT22;12898;50.520;12.152;2023-07-16T14:52:49;29.80;47.50
24802;DHT22;12898;50.520;12.152;2023-07-16T14:55:15;29.80;44.30
24802;DHT22;12898;50.520;12.152;2023-07-16T14:57:40;29.40;45.00
24802;DHT22;12898;50.520;12.152;2023-07-16T15:00:07;29.00;46.20
24802;DHT22;12898;50.520;12.152;2023-07-16T15:02:36;29.20;47.60
24802;DHT22;12898;50.520;12.152;2023-07-16T15:05:04;29.30;45.50
24802;DHT22;12898;50.520;12.152;2023-07-16T15:07:32;29.40;46.60
24802;DHT22;12898;50.520;12.152;2023-07-16T15:10:00;29.50;45.90
24802;DHT22;12898;50.520;12.152;2023-07-16T15:12:26;29.50;47.50
24802;DHT22;12898;50.520;12.152;2023-07-16T15:14:52;29.60;46.30
24802;DHT22;12898;50.520;12.152;2023-07-16T15:17:17;29.70;47.00
24802;DHT22;12898;50.520;12.152;2023-07-16T15:19:43;30.00;47.50